Time;durP1;ratioP1;P1;durP2;ratioP2;P2;SDS_P1;SDS_P2;PMS_P1;PMS_P2;Temp;Humidity;BMP_temperature;BMP_pressure;BME280_temperature;BME280_humidity;BME280_pressure;Samples;Min_cycle;Max_cycle;Signal;HPM_P1;HPM_P2
2024/01/11 00:00:46;;;;;;;53.03;30.92;;;21.60;49.60;;;;;;5112311;28;20070;-73
2024/01/11 00:03:12;;;;;;;60.10;32.28;;;21.20;49.50;;;;;;5111983;28;20032;-74
2024/01/11 00:05:38;;;;;;;53.92;30.67;;;21.20;49.80;;;;;;5112153;28;20055;-74
2024/01/11 00:08:05;;;;;;;56.90;31.10;;;21.20;50.10;;;;;;5112257;28;20132;-74
2024/01/11 00:10:31;;;;;;;52.58;30.83;;;21.40;48.20;;;;;;5112286;28;20497;-74
2024/01/11 00:12:57;;;;;;;55.08;32.15;;;21.20;49.30;;;;;;5112237;28;20047;-74
2024/01/11 00:15:23;;;;;;;49.83;29.55;;;21.40;49.20;;;;;;5092691;28;20047;-73
2024/01/11 00:17:49;;;;;;;47.83;30.60;;;21.10;49.30;;;;;;5111567;28;20511;-74
2024/01/11 00:20:15;;;;;;;47.47;29.42;;;21.10;49.40;;;;;;5111946;28;20393;-74
2024/01/11 00:22:41;;;;;;;48.67;28.67;;;21.20;49.70;;;;;;5111894;28;20051;-75
2024/01/11 00:25:08;;;;;;;53.25;31.10;;;21.30;49.30;;;;;;5111177;28;20463;-74
2024/01/11 00:27:34;;;;;;;50.80;29.75;;;21.30;49.20;;;;;;5111721;28;20039;-74
2024/01/11 00:30:00;;;;;;;49.15;29.27;;;21.20;48.90;;;;;;5111708;28;20055;-74
2024/01/11 00:32:26;;;;;;;43.97;26.77;;;21.20;49.30;;;;;;5111815;28;20518;-74
2024/01/11 00:34:52;;;;;;;49.65;29.95;;;21.30;47.70;;;;;;5111480;28;20122;-75
2024/01/11 00:37:18;;;;;;;50.03;29.85;;;21.30;48.60;;;;;;5110075;28;20047;-75
2024/01/11 00:39:44;;;;;;;54.80;33.20;;;21.00;48.80;;;;;;5111302;28;20048;-74
2024/01/11 00:42:10;;;;;;;55.00;33.40;;;21.80;48.80;;;;;;5110286;28;20039;-75
2024/01/11 00:44:36;;;;;;;52.30;34.10;;;21.10;48.60;;;;;;5111488;28;20451;-75
2024/01/11 00:47:03;;;;;;;59.65;32.83;;;21.40;49.10;;;;;;5111266;28;20047;-74
2024/01/11 00:49:29;;;;;;;57.58;34.15;;;21.00;49.00;;;;;;5110569;28;20066;-75
2024/01/11 00:51:55;;;;;;;61.42;34.20;;;21.00;50.00;;;;;;5111361;28;20038;-74
2024/01/11 00:54:21;;;;;;;58.30;33.22;;;21.10;49.50;;;;;;5109794;28;20028;-74
2024/01/11 00:56:48;;;;;;;56.20;32.20;;;21.20;49.40;;;;;;5108436;28;20142;-75
2024/01/11 00:59:14;;;;;;;60.53;33.50;;;21.20;49.30;;;;;;5110088;28;20076;-74
2024/01/11 01:01:40;;;;;;;60.28;33.25;;;21.10;49.60;;;;;;5111161;28;20475;-75
2024/01/11 01:04:06;;;;;;;43.42;28.67;;;21.00;48.20;;;;;;5111310;28;20032;-75
2024/01/11 01:06:32;;;;;;;59.10;32.65;;;20.90;48.70;;;;;;5092178;28;20054;-74
2024/01/11 01:08:58;;;;;;;55.88;31.98;;;21.60;49.40;;;;;;5111505;28;20035;-75
2024/01/11 01:11:24;;;;;;;50.90;33.30;;;20.80;48.90;;;;;;5111363;28;20039;-73
2024/01/11 01:13:50;;;;;;;61.38;34.58;;;20.80;50.40;;;;;;5109660;28;20032;-74
2024/01/11 01:16:17;;;;;;;56.97;31.90;;;20.90;48.40;;;;;;5091057;28;20047;-75
2024/01/11 01:18:44;;;;;;;58.95;33.65;;;21.00;48.50;;;;;;5090715;28;20470;-74
2024/01/11 01:21:10;;;;;;;54.65;32.72;;;20.80;50.00;;;;;;5091090;28;20024;-74
2024/01/11 01:23:36;;;;;;;56.58;32.63;;;21.00;48.10;;;;;;5090862;28;20036;-74
2024/01/11 01:26:02;;;;;;;57.30;33.38;;;20.90;48.20;;;;;;5071515;28;20501;-75
2024/01/11 01:28:28;;;;;;;59.22;34.00;;;20.90;48.20;;;;;;5090810;28;20034;-74
2024/01/11 01:30:54;;;;;;;48.60;29.83;;;20.90;48.20;;;;;;5090844;28;20035;-74
2024/01/11 01:33:20;;;;;;;50.50;30.83;;;20.90;48.30;;;;;;5090879;28;20503;-74
2024/01/11 01:35:46;;;;;;;55.92;31.42;;;20.80;48.40;;;;;;5089464;28;20044;-74
2024/01/11 01:38:12;;;;;;;48.72;29.98;;;20.80;48.60;;;;;;5088329;28;20039;-75
2024/01/11 01:40:39;;;;;;;46.63;28.80;;;20.80;48.30;;;;;;5090709;28;20075;-75
2024/01/11 01:43:10;;;;;;;47.20;30.60;;;20.70;48.60;;;;;;5090577;28;20043;-75
2024/01/11 01:45:36;;;;;;;47.42;27.83;;;20.90;50.00;;;;;;5089247;28;20127;-74
2024/01/11 01:48:04;;;;;;;45.63;26.40;;;21.00;47.70;;;;;;5090825;28;20043;-75
2024/01/11 01:50:31;;;;;;;45.92;27.70;;;20.80;48.40;;;;;;5090767;28;20530;-73
2024/01/11 01:52:57;;;;;;;44.55;27.40;;;20.70;48.80;;;;;;5094657;28;20035;-74
2024/01/11 01:55:25;;;;;;;48.97;27.73;;;20.40;48.70;;;;;;5094108;28;20043;-75
2024/01/11 01:57:53;;;;;;;46.92;27.63;;;20.70;49.10;;;;;;5094321;28;20071;-75
2024/01/11 02:00:19;;;;;;;41.53;25.65;;;20.60;49.00;;;;;;5094138;28;20456;-74
2024/01/11 02:02:50;;;;;;;49.60;27.35;;;20.60;48.90;;;;;;5093987;28;20480;-75
2024/01/11 02:05:17;;;;;;;48.67;28.90;;;20.80;49.20;;;;;;5092962;28;20395;-73
2024/01/11 02:07:44;;;;;;;42.50;26.42;;;20.70;50.40;;;;;;5094215;28;20019;-74
2024/01/11 02:10:10;;;;;;;47.10;27.20;;;20.70;48.50;;;;;;5093978;28;20056;-75
2024/01/11 02:12:39;;;;;;;47.90;28.30;;;20.70;49.20;;;;;;5094050;28;20038;-71
2024/01/11 02:15:06;;;;;;;42.58;26.92;;;20.80;48.30;;;;;;5096647;28;20039;-73
2024/01/11 02:17:33;;;;;;;47.97;27.58;;;20.50;48.30;;;;;;5113947;28;20051;-74
2024/01/11 02:20:01;;;;;;;52.20;30.55;;;20.60;48.20;;;;;;5114371;28;20027;-74
2024/01/11 02:22:40;;;;;;;52.85;31.95;;;20.70;48.10;;;;;;5114177;28;20368;-75
2024/01/11 02:25:06;;;;;;;52.08;30.80;;;20.80;48.20;;;;;;5070796;28;20047;-74
2024/01/11 02:27:45;;;;;;;50.58;30.23;;;20.50;48.40;;;;;;5054079;28;20557;-75
2024/01/11 02:30:12;;;;;;;49.47;29.35;;;20.90;48.10;;;;;;5071012;28;20036;-73
2024/01/11 02:32:38;;;;;;;48.88;29.35;;;20.70;48.10;;;;;;5071166;28;20527;-75
2024/01/11 02:35:05;;;;;;;50.13;29.60;;;20.70;48.60;;;;;;5037447;28;20115;-74
2024/01/11 02:37:31;;;;;;;48.20;29.15;;;20.70;48.80;;;;;;5070883;28;20044;-74
2024/01/11 02:39:57;;;;;;;48.00;30.17;;;20.80;48.70;;;;;;5071030;28;20075;-74
2024/01/11 02:42:24;;;;;;;52.05;30.92;;;20.60;48.30;;;;;;5070932;28;20063;-74
2024/01/11 02:44:50;;;;;;;54.65;33.03;;;20.60;48.40;;;;;;5070483;28;20142;-75
2024/01/11 02:47:16;;;;;;;46.65;29.85;;;20.50;49.50;;;;;;5070556;28;20040;-74
2024/01/11 02:49:42;;;;;;;56.08;31.83;;;20.70;48.40;;;;;;5058404;28;20037;-75
2024/01/11 02:52:08;;;;;;;51.88;30.35;;;20.50;48.80;;;;;;5050789;28;20121;-74
2024/01/11 02:54:34;;;;;;;56.20;32.72;;;20.80;50.30;;;;;;5050393;28;20083;-74
2024/01/11 02:57:00;;;;;;;49.13;29.83;;;20.50;48.80;;;;;;5087603;28;20086;-74
2024/01/11 02:59:26;;;;;;;51.10;30.40;;;20.50;50.30;;;;;;5093155;28;20040;-74
2024/01/11 03:01:52;;;;;;;54.13;32.63;;;19.50;48.40;;;;;;5093114;28;20115;-75
2024/01/11 03:04:18;;;;;;;52.05;31.40;;;20.50;48.90;;;;;;5093151;28;20036;-74
2024/01/11 03:06:45;;;;;;;55.28;32.03;;;20.40;48.90;;;;;;5093011;28;20137;-75
2024/01/11 03:09:11;;;;;;;50.10;30.92;;;20.60;48.40;;;;;;5093316;28;20039;-74
2024/01/11 03:11:37;;;;;;;51.03;30.23;;;20.20;48.30;;;;;;5092772;28;20484;-75
2024/01/11 03:14:03;;;;;;;48.90;30.17;;;20.40;48.50;;;;;;5058279;28;20181;-74
2024/01/11 03:16:30;;;;;;;47.97;29.88;;;20.40;48.50;;;;;;5092410;28;20027;-74
2024/01/11 03:18:56;;;;;;;47.70;29.38;;;20.50;49.60;;;;;;5092953;28;20040;-75
2024/01/11 03:21:22;;;;;;;47.25;29.70;;;20.70;47.70;;;;;;5092652;28;20055;-75
2024/01/11 03:23:48;;;;;;;46.50;28.50;;;20.60;47.80;;;;;;5092951;28;20111;-74
2024/01/11 03:26:16;;;;;;;49.10;29.42;;;20.60;47.90;;;;;;5091465;28;20039;-75
2024/01/11 03:28:43;;;;;;;49.22;29.73;;;20.70;48.00;;;;;;5092582;28;20115;-74
2024/01/11 03:31:10;;;;;;;47.72;29.42;;;20.60;47.90;;;;;;5091303;28;20394;-75
2024/01/11 03:33:36;;;;;;;49.00;30.13;;;20.60;47.90;;;;;;5092349;28;20469;-74
2024/01/11 03:36:10;;;;;;;46.03;29.33;;;20.50;47.80;;;;;;5092313;28;20483;-74
2024/01/11 03:38:37;;;;;;;46.00;28.20;;;20.50;47.70;;;;;;5090026;28;20090;-74
2024/01/11 03:41:11;;;;;;;48.92;29.70;;;20.60;47.80;;;;;;5092495;28;20124;-73
2024/01/11 03:43:37;;;;;;;53.33;30.25;;;20.50;48.00;;;;;;5092423;28;20032;-74
2024/01/11 03:46:04;;;;;;;46.70;28.38;;;20.60;49.10;;;;;;5092123;28;20455;-74
2024/01/11 03:48:31;;;;;;;46.00;28.55;;;20.60;47.60;;;;;;5092211;28;20062;-74
2024/01/11 03:50:57;;;;;;;44.45;27.30;;;20.60;49.30;;;;;;5091093;28;20032;-74
2024/01/11 03:53:23;;;;;;;43.83;26.98;;;20.60;48.70;;;;;;5072828;28;20082;-72
2024/01/11 03:55:49;;;;;;;42.60;25.77;;;20.60;48.90;;;;;;5092075;28;20074;-74
2024/01/11 03:58:15;;;;;;;35.67;24.38;;;20.80;48.80;;;;;;5090783;28;20086;-74
2024/01/11 04:00:41;;;;;;;39.65;24.17;;;20.80;48.80;;;;;;5091823;28;20388;-74
2024/01/11 04:03:08;;;;;;;37.20;24.73;;;20.70;48.80;;;;;;5091974;28;20032;-74
2024/01/11 04:05:34;;;;;;;39.78;24.77;;;20.60;47.50;;;;;;5090603;28;20043;-75
2024/01/11 04:08:02;;;;;;;44.28;27.50;;;20.60;47.80;;;;;;5100663;28;20053;-75
2024/01/11 04:10:28;;;;;;;44.75;27.70;;;20.50;49.70;;;;;;5112136;28;20487;-75
2024/01/11 04:12:55;;;;;;;49.75;28.42;;;20.60;47.40;;;;;;5112085;28;20422;-74
2024/01/11 04:15:21;;;;;;;47.30;28.83;;;20.50;47.90;;;;;;5111471;28;20043;-74
2024/01/11 04:17:47;;;;;;;39.85;26.02;;;19.90;47.90;;;;;;5111781;28;20104;-74
2024/01/11 04:20:13;;;;;;;50.65;28.52;;;20.30;48.30;;;;;;5112195;28;20030;-75
2024/01/11 04:22:39;;;;;;;47.03;27.27;;;20.40;48.20;;;;;;5111885;28;20027;-74
2024/01/11 04:25:06;;;;;;;47.97;27.13;;;20.30;48.20;;;;;;5111977;28;20059;-74
2024/01/11 04:27:32;;;;;;;45.05;26.45;;;20.50;48.30;;;;;;5112245;28;20063;-73
2024/01/11 04:29:59;;;;;;;48.15;24.20;;;20.50;49.50;;;;;;5111903;28;20105;-74
2024/01/11 04:32:25;;;;;;;46.60;26.38;;;20.40;49.70;;;;;;5111749;28;20038;-74
2024/01/11 04:34:51;;;;;;;46.38;27.17;;;20.40;48.40;;;;;;5110653;28;20039;-74
2024/01/11 04:37:18;;;;;;;42.03;25.42;;;20.40;47.80;;;;;;5111387;28;20383;-74
2024/01/11 04:39:44;;;;;;;42.75;25.83;;;20.50;48.30;;;;;;5111653;27;20188;-74
2024/01/11 04:42:10;;;;;;;39.35;24.17;;;20.50;48.10;;;;;;5110246;28;20076;-75
2024/01/11 04:44:37;;;;;;;50.08;28.23;;;20.60;47.30;;;;;;5111655;28;20749;-73
2024/01/11 04:47:03;;;;;;;44.97;27.65;;;20.70;46.90;;;;;;5111574;28;20170;-74
2024/01/11 04:49:29;;;;;;;51.10;27.50;;;20.70;47.30;;;;;;5110252;28;20114;-74
2024/01/11 04:51:55;;;;;;;43.53;27.75;;;20.60;47.40;;;;;;5092357;28;20487;-74
2024/01/11 04:54:21;;;;;;;50.45;29.20;;;20.50;47.60;;;;;;5105638;28;20078;-75
2024/01/11 04:56:47;;;;;;;47.95;28.77;;;20.50;47.50;;;;;;5071956;28;20051;-75
2024/01/11 04:59:13;;;;;;;49.65;29.48;;;20.60;47.60;;;;;;5091010;28;20059;-75
2024/01/11 05:01:40;;;;;;;48.30;28.02;;;20.50;49.00;;;;;;5091184;28;20032;-73
2024/01/11 05:04:07;;;;;;;54.40;29.67;;;20.50;48.60;;;;;;5090873;28;20040;-75
2024/01/11 05:06:33;;;;;;;43.85;26.88;;;20.60;48.30;;;;;;5089816;28;20032;-74
2024/01/11 05:08:59;;;;;;;46.15;27.73;;;20.40;48.10;;;;;;5091067;28;20348;-74
2024/01/11 05:11:26;;;;;;;39.22;25.55;;;20.90;48.60;;;;;;5072668;28;20432;-72
2024/01/11 05:13:52;;;;;;;21.98;14.25;;;20.80;47.90;;;;;;5090881;28;20383;-72
2024/01/11 05:16:22;;;;;;;19.63;12.70;;;21.20;49.90;;;;;;5091038;28;20420;-73
2024/01/11 05:18:49;;;;;;;25.25;14.82;;;21.90;52.10;;;;;;5091122;28;20044;-72
2024/01/11 05:21:15;;;;;;;35.00;23.00;;;22.20;47.30;;;;;;5096271;28;20031;-75
2024/01/11 05:23:42;;;;;;;34.20;23.58;;;22.40;49.80;;;;;;5110938;28;20027;-73
2024/01/11 05:26:09;;;;;;;34.90;23.30;;;22.40;45.60;;;;;;5112045;28;20097;-75
2024/01/11 05:28:35;;;;;;;44.50;24.80;;;22.20;43.90;;;;;;5115197;28;20058;-73
2024/01/11 05:31:01;;;;;;;37.90;23.85;;;22.00;42.90;;;;;;5115276;28;20024;-72
2024/01/11 05:33:27;;;;;;;37.30;23.50;;;21.20;43.30;;;;;;5113879;28;20092;-72
2024/01/11 05:35:53;;;;;;;40.15;24.77;;;21.60;44.90;;;;;;5115211;28;20039;-73
2024/01/11 05:38:20;;;;;;;40.00;23.58;;;21.70;45.20;;;;;;5078795;28;20483;-72
2024/01/11 05:40:46;;;;;;;35.95;22.83;;;21.60;45.40;;;;;;5115137;28;20517;-75
2024/01/11 05:43:12;;;;;;;35.45;21.73;;;21.40;44.20;;;;;;5114785;28;20108;-74
2024/01/11 05:45:38;;;;;;;30.95;21.08;;;21.30;44.70;;;;;;5114649;28;20459;-73
2024/01/11 05:48:05;;;;;;;43.92;24.05;;;21.20;44.80;;;;;;5113651;28;20039;-77
2024/01/11 05:50:32;;;;;;;38.45;22.90;;;21.20;44.80;;;;;;5114963;28;20032;-76
2024/01/11 05:52:58;;;;;;;36.78;22.88;;;21.30;46.50;;;;;;5114682;28;20051;-76
2024/01/11 05:55:24;;;;;;;35.38;22.73;;;21.30;45.90;;;;;;5114669;28;20114;-76
2024/01/11 05:57:50;;;;;;;36.35;23.42;;;21.20;46.10;;;;;;5114668;28;20479;-75
2024/01/11 06:00:17;;;;;;;23.20;16.63;;;21.20;44.60;;;;;;5114742;28;20055;-73
2024/01/11 06:02:43;;;;;;;21.05;16.67;;;21.10;41.20;;;;;;5114490;27;20032;-74
2024/01/11 06:05:09;;;;;;;19.33;16.00;;;20.90;37.90;;;;;;5114274;28;20051;-73
2024/01/11 06:07:36;;;;;;;20.38;17.08;;;20.90;37.10;;;;;;5114233;28;20027;-73
2024/01/11 06:10:02;;;;;;;22.17;16.85;;;21.00;38.50;;;;;;5114226;28;20027;-74
2024/01/11 06:12:29;;;;;;;20.27;16.70;;;21.10;40.60;;;;;;5114572;28;20036;-74
2024/01/11 06:14:55;;;;;;;20.55;17.02;;;21.30;38.50;;;;;;5094654;28;20055;-74
2024/01/11 06:17:21;;;;;;;22.17;17.63;;;21.10;38.20;;;;;;5077225;28;20096;-73
2024/01/11 06:19:47;;;;;;;22.63;17.95;;;20.90;36.80;;;;;;5112952;28;20036;-73
2024/01/11 06:22:13;;;;;;;22.15;18.35;;;21.00;37.70;;;;;;5114114;28;20050;-73
2024/01/11 06:24:39;;;;;;;19.25;16.27;;;20.30;37.30;;;;;;5094468;28;20134;-72
2024/01/11 06:27:05;;;;;;;19.20;16.13;;;21.00;35.20;;;;;;5113952;28;20638;-72
2024/01/11 06:29:31;;;;;;;18.55;14.50;;;20.90;34.80;;;;;;5113695;28;20391;-72
2024/01/11 06:31:57;;;;;;;16.17;13.55;;;20.60;37.70;;;;;;5113979;28;20160;-73
2024/01/11 06:34:23;;;;;;;21.02;14.45;;;21.00;38.90;;;;;;5113909;28;20057;-73
2024/01/11 06:36:49;;;;;;;20.17;14.57;;;21.10;38.50;;;;;;5113114;28;20081;-73
2024/01/11 06:39:16;;;;;;;18.70;14.13;;;21.20;37.60;;;;;;5113928;28;20031;-73
2024/01/11 06:41:43;;;;;;;19.83;15.35;;;21.20;35.50;;;;;;5113993;28;20039;-73
2024/01/11 06:44:09;;;;;;;17.75;14.77;;;21.20;36.20;;;;;;5092146;28;20089;-72
2024/01/11 06:46:44;;;;;;;17.70;12.43;;;21.30;37.70;;;;;;5102161;28;20028;-74
2024/01/11 06:49:11;;;;;;;42.72;24.40;;;21.80;42.50;;;;;;5082557;28;20066;-73
2024/01/11 06:51:38;;;;;;;41.85;26.75;;;21.50;43.90;;;;;;5105151;27;20112;-75
2024/01/11 06:54:05;;;;;;;43.17;27.15;;;21.50;44.10;;;;;;5102775;28;20368;-76
2024/01/11 06:56:31;;;;;;;40.35;25.08;;;21.60;44.20;;;;;;5104122;28;20038;-74
2024/01/11 06:58:57;;;;;;;25.25;15.38;;;21.50;45.00;;;;;;5103709;28;20110;-74
2024/01/11 07:01:23;;;;;;;33.53;21.10;;;21.80;44.30;;;;;;5099292;28;20202;-73
2024/01/11 07:03:49;;;;;;;33.45;20.77;;;22.10;45.30;;;;;;5101351;28;20043;-75
2024/01/11 07:06:15;;;;;;;16.38;10.80;;;21.80;45.10;;;;;;5102363;28;20043;-74
2024/01/11 07:08:41;;;;;;;14.00;9.80;;;21.80;45.20;;;;;;5103936;28;20463;-74
2024/01/11 07:11:08;;;;;;;13.65;9.98;;;22.00;45.40;;;;;;5104551;27;20047;-73
2024/01/11 07:13:34;;;;;;;18.90;10.27;;;22.00;44.90;;;;;;5102511;28;20024;-73
2024/01/11 07:16:00;;;;;;;17.60;10.27;;;22.20;43.60;;;;;;5104077;28;20040;-73
2024/01/11 07:18:26;;;;;;;12.45;9.00;;;21.60;43.40;;;;;;5099499;28;20047;-73
2024/01/11 07:20:55;;;;;;;12.93;9.40;;;22.00;44.40;;;;;;5102706;28;20031;-72
2024/01/11 07:23:21;;;;;;;46.28;28.52;;;22.10;44.10;;;;;;5102505;28;20040;-73
2024/01/11 07:25:48;;;;;;;49.22;29.52;;;22.10;42.20;;;;;;5092286;28;20360;-73
2024/01/11 07:28:14;;;;;;;49.42;30.00;;;21.90;43.10;;;;;;5092541;28;20169;-73
2024/01/11 07:30:40;;;;;;;41.75;27.73;;;21.80;45.10;;;;;;5092327;28;20036;-72
2024/01/11 07:33:06;;;;;;;50.83;29.00;;;21.70;44.20;;;;;;5092180;28;20032;-73
2024/01/11 07:35:32;;;;;;;48.53;29.98;;;21.70;44.40;;;;;;5092072;28;20395;-73
2024/01/11 07:37:58;;;;;;;50.33;31.60;;;21.80;44.30;;;;;;5092214;28;20078;-72
2024/01/11 07:40:24;;;;;;;56.55;33.58;;;21.70;44.70;;;;;;5101780;28;20090;-74
2024/01/11 07:42:50;;;;;;;52.08;31.92;;;21.50;45.00;;;;;;5092398;28;20077;-73
2024/01/11 07:45:17;;;;;;;54.65;30.85;;;21.50;45.30;;;;;;5091917;28;20122;-74
2024/01/11 07:47:43;;;;;;;47.65;30.88;;;21.50;45.80;;;;;;5092041;28;20043;-73
2024/01/11 07:50:10;;;;;;;52.10;31.42;;;21.50;47.70;;;;;;5091223;28;20494;-72
2024/01/11 07:52:36;;;;;;;47.75;30.17;;;21.60;47.20;;;;;;5092029;28;20051;-73
2024/01/11 07:55:07;;;;;;;50.00;30.77;;;21.40;45.60;;;;;;5091802;28;20036;-75
2024/01/11 07:57:34;;;;;;;47.83;28.10;;;22.30;47.10;;;;;;5091924;28;20053;-73
2024/01/11 08:00:00;;;;;;;47.72;30.17;;;21.70;47.10;;;;;;5090441;28;20158;-74
2024/01/11 08:02:27;;;;;;;51.63;32.72;;;22.20;47.20;;;;;;5091843;28;20048;-74
2024/01/11 08:04:53;;;;;;;47.45;29.55;;;21.90;46.90;;;;;;5091428;28;20510;-75
2024/01/11 08:07:19;;;;;;;49.17;29.08;;;21.90;47.40;;;;;;5091936;28;20417;-75
2024/01/11 08:09:45;;;;;;;48.92;31.02;;;21.90;47.60;;;;;;5091728;28;20051;-73
2024/01/11 08:12:13;;;;;;;46.55;29.38;;;21.00;46.60;;;;;;5055733;28;20044;-73
2024/01/11 08:14:39;;;;;;;43.33;28.33;;;21.50;46.90;;;;;;5106580;28;20036;-75
2024/01/11 08:17:05;;;;;;;49.30;29.55;;;21.40;50.30;;;;;;5075497;28;20130;-73
2024/01/11 08:19:32;;;;;;;45.72;28.52;;;21.60;49.30;;;;;;5111231;28;20028;-72
2024/01/11 08:21:58;;;;;;;45.92;27.65;;;21.60;49.40;;;;;;5110525;28;20089;-75
2024/01/11 08:24:24;;;;;;;46.60;27.90;;;21.50;50.30;;;;;;5111869;28;20035;-73
2024/01/11 08:26:51;;;;;;;41.67;27.88;;;21.80;48.90;;;;;;5111638;28;20104;-71
2024/01/11 08:29:19;;;;;;;42.25;27.70;;;21.50;48.40;;;;;;5111485;28;20506;-73
2024/01/11 08:31:48;;;;;;;41.80;27.67;;;21.60;50.00;;;;;;5088539;28;20082;-74
2024/01/11 08:34:14;;;;;;;42.95;27.58;;;21.40;48.60;;;;;;5088665;28;20412;-73
2024/01/11 08:36:40;;;;;;;46.88;27.95;;;21.70;49.70;;;;;;5088396;28;20123;-75
2024/01/11 08:39:08;;;;;;;40.97;26.75;;;21.50;49.70;;;;;;5088790;28;20054;-78
2024/01/11 08:41:43;;;;;;;46.80;26.85;;;21.50;49.80;;;;;;5088531;28;20127;-72
2024/01/11 08:44:09;;;;;;;41.03;25.23;;;21.50;49.60;;;;;;5088469;28;20493;-72
2024/01/11 08:46:35;;;;;;;42.10;27.88;;;21.70;48.00;;;;;;5088280;28;20565;-73
2024/01/11 08:49:05;;;;;;;44.92;26.13;;;21.60;49.20;;;;;;5086140;28;20537;-72
2024/01/11 08:51:34;;;;;;;37.65;26.30;;;21.30;49.60;;;;;;5078952;28;20070;-72
2024/01/11 08:54:00;;;;;;;44.58;27.38;;;21.50;48.70;;;;;;5078950;28;20036;-73
2024/01/11 08:56:27;;;;;;;37.72;24.10;;;21.40;48.70;;;;;;5067878;28;20083;-72
2024/01/11 08:58:54;;;;;;;37.28;23.13;;;21.40;48.90;;;;;;5082465;28;20054;-73
2024/01/11 09:01:20;;;;;;;37.70;23.05;;;21.40;50.20;;;;;;5085043;28;20028;-73
2024/01/11 09:03:47;;;;;;;36.03;22.20;;;21.60;48.60;;;;;;5109195;28;20043;-74
2024/01/11 09:06:13;;;;;;;37.38;21.30;;;21.60;50.20;;;;;;5106462;28;20024;-81
2024/01/11 09:08:41;;;;;;;30.50;20.98;;;21.70;48.40;;;;;;5090666;28;20036;-74
2024/01/11 09:11:10;;;;;;;32.35;19.92;;;21.60;50.50;;;;;;5090923;28;20035;-78
2024/01/11 09:13:36;;;;;;;35.00;22.30;;;21.20;50.60;;;;;;5090817;28;20039;-80
2024/01/11 09:16:02;;;;;;;33.35;21.17;;;21.50;49.40;;;;;;5090420;28;20028;-78
2024/01/11 09:18:28;;;;;;;34.65;21.10;;;21.30;48.60;;;;;;5071151;28;20052;-76
2024/01/11 09:20:56;;;;;;;32.25;20.95;;;21.60;49.60;;;;;;5093879;28;20035;-79
2024/01/11 09:23:22;;;;;;;33.70;21.13;;;21.60;47.90;;;;;;5105746;28;20447;-80
2024/01/11 09:25:48;;;;;;;31.42;20.33;;;21.60;49.10;;;;;;5090641;28;20032;-79
2024/01/11 09:28:14;;;;;;;32.58;20.83;;;22.00;49.20;;;;;;5090636;28;20423;-81
2024/01/11 09:30:40;;;;;;;31.92;19.83;;;21.80;48.10;;;;;;5090433;28;20028;-80
2024/01/11 09:33:06;;;;;;;25.05;17.42;;;21.70;48.60;;;;;;5090750;28;20081;-78
2024/01/11 09:35:32;;;;;;;27.05;17.70;;;21.60;48.10;;;;;;5090669;28;20036;-77
2024/01/11 09:37:58;;;;;;;28.20;17.40;;;21.50;48.40;;;;;;5089088;28;20369;-78
2024/01/11 09:40:24;;;;;;;28.77;17.85;;;21.60;48.30;;;;;;5090908;28;20059;-77
2024/01/11 09:42:51;;;;;;;28.75;18.17;;;21.90;49.40;;;;;;5090849;28;20051;-75
2024/01/11 09:45:17;;;;;;;14.57;10.20;;;21.90;50.10;;;;;;5090697;28;20107;-73
2024/01/11 09:47:46;;;;;;;14.93;10.52;;;21.60;45.00;;;;;;5090465;28;20518;-75
2024/01/11 09:50:18;;;;;;;14.43;10.57;;;21.80;46.10;;;;;;5090660;28;20028;-81
2024/01/11 09:52:49;;;;;;;27.05;16.90;;;22.10;45.20;;;;;;5090285;28;20107;-80
2024/01/11 09:55:16;;;;;;;25.92;18.40;;;22.10;49.00;;;;;;5089288;28;20118;-77
2024/01/11 09:57:46;;;;;;;26.90;17.42;;;21.80;49.70;;;;;;5090392;28;20032;-76
2024/01/11 10:00:23;;;;;;;25.65;16.75;;;22.10;48.90;;;;;;5089254;28;20040;-75
2024/01/11 10:02:49;;;;;;;28.15;16.67;;;22.00;49.20;;;;;;5089089;28;20036;-76
2024/01/11 10:05:18;;;;;;;24.88;16.58;;;22.50;50.50;;;;;;5090105;28;20064;-80
2024/01/11 10:07:47;;;;;;;25.70;15.85;;;22.10;50.00;;;;;;5089948;28;20371;-78
2024/01/11 10:10:17;;;;;;;29.75;17.58;;;22.50;49.30;;;;;;5090091;28;20478;-75
2024/01/11 10:12:44;;;;;;;31.27;17.70;;;22.40;49.40;;;;;;5091840;28;20032;-74
2024/01/11 10:15:10;;;;;;;27.10;17.27;;;22.20;49.10;;;;;;5093658;28;20052;-79
2024/01/11 10:17:42;;;;;;;28.25;17.40;;;22.20;49.80;;;;;;5093936;28;20130;-80
2024/01/11 10:20:10;;;;;;;25.80;17.33;;;22.20;48.90;;;;;;5094021;28;20067;-76
2024/01/11 10:22:36;;;;;;;24.80;16.73;;;22.60;51.20;;;;;;5108032;28;20407;-80
2024/01/11 10:25:10;;;;;;;25.35;17.20;;;22.40;50.50;;;;;;5077671;28;20162;-80
2024/01/11 10:27:38;;;;;;;26.98;16.98;;;22.20;50.30;;;;;;5095470;28;20051;-76
2024/01/11 10:30:07;;;;;;;29.88;18.95;;;22.70;56.40;;;;;;5093571;28;20036;-76
2024/01/11 10:32:34;;;;;;;28.77;17.38;;;23.00;51.20;;;;;;5094089;28;20054;-73
2024/01/11 10:35:04;;;;;;;11.45;8.15;;;22.90;48.90;;;;;;5024564;28;20071;-74
2024/01/11 10:37:32;;;;;;;27.25;9.88;;;22.80;50.10;;;;;;5092156;28;20531;-77
2024/01/11 10:40:04;;;;;;;12.55;9.23;;;23.20;49.40;;;;;;5093529;28;20036;-83
2024/01/11 10:42:33;;;;;;;14.38;10.15;;;23.50;54.00;;;;;;5093591;28;20028;-76
2024/01/11 10:45:03;;;;;;;22.10;12.32;;;23.80;49.50;;;;;;5093144;28;20152;-77
2024/01/11 10:47:31;;;;;;;27.30;11.15;;;23.90;44.60;;;;;;5093642;28;20066;-77
2024/01/11 10:50:01;;;;;;;16.63;10.55;;;24.00;44.00;;;;;;5093157;28;20544;-75
2024/01/11 10:52:34;;;;;;;24.08;16.48;;;24.00;45.00;;;;;;5093606;28;20059;-79
2024/01/11 10:55:01;;;;;;;29.48;16.80;;;24.00;45.80;;;;;;5092848;28;20036;-76
2024/01/11 10:57:29;;;;;;;15.77;10.43;;;23.90;49.00;;;;;;5096120;28;20027;-81
2024/01/11 10:59:56;;;;;;;17.63;9.52;;;24.10;46.90;;;;;;5093261;28;20040;-75
2024/01/11 11:02:23;;;;;;;17.35;10.20;;;24.50;48.90;;;;;;5093321;28;20050;-71
2024/01/11 11:04:53;;;;;;;24.27;14.88;;;24.70;50.10;;;;;;5092960;28;20049;-74
2024/01/11 11:07:19;;;;;;;20.27;10.65;;;24.90;51.80;;;;;;5092825;28;20024;-74
2024/01/11 11:09:49;;;;;;;26.67;17.65;;;25.00;50.90;;;;;;5073737;28;20043;-74
2024/01/11 11:12:17;;;;;;;26.00;18.52;;;24.80;48.70;;;;;;5093117;28;20040;-76
2024/01/11 11:14:47;;;;;;;25.08;17.13;;;24.70;48.30;;;;;;5075706;28;20047;-77
2024/01/11 11:17:15;;;;;;;28.20;15.82;;;24.20;47.20;;;;;;5113543;28;20715;-76
2024/01/11 11:19:42;;;;;;;26.27;16.75;;;24.50;47.80;;;;;;5113339;28;20043;-74
2024/01/11 11:22:08;;;;;;;25.42;16.55;;;24.50;46.50;;;;;;5111871;28;20031;-74
2024/01/11 11:24:35;;;;;;;24.80;15.93;;;24.40;48.20;;;;;;5092125;28;20039;-74
2024/01/11 11:27:01;;;;;;;28.55;17.05;;;24.40;46.90;;;;;;5112747;28;20035;-74
2024/01/11 11:29:27;;;;;;;22.25;15.25;;;24.30;47.10;;;;;;5113113;28;20020;-73
2024/01/11 11:31:53;;;;;;;25.10;16.65;;;24.20;48.30;;;;;;5112875;28;20040;-74
2024/01/11 11:34:20;;;;;;;27.73;17.08;;;24.20;46.80;;;;;;5111811;28;20025;-73
2024/01/11 11:36:49;;;;;;;26.02;16.25;;;24.20;47.20;;;;;;5112423;28;20055;-74
2024/01/11 11:39:15;;;;;;;24.77;16.20;;;24.30;47.30;;;;;;5111536;28;20431;-73
2024/01/11 11:41:42;;;;;;;27.98;16.27;;;23.90;49.10;;;;;;5113005;28;20277;-74
2024/01/11 11:44:15;;;;;;;26.08;17.15;;;23.90;47.60;;;;;;5113277;28;20436;-75
2024/01/11 11:46:41;;;;;;;24.75;16.30;;;24.00;47.60;;;;;;5112377;28;20063;-78
2024/01/11 11:49:09;;;;;;;26.35;15.70;;;23.80;47.80;;;;;;5112380;28;20063;-78
2024/01/11 11:51:40;;;;;;;26.88;17.48;;;23.80;49.50;;;;;;5112392;28;20092;-77
2024/01/11 11:54:09;;;;;;;32.38;19.65;;;23.80;47.70;;;;;;5111517;28;20471;-75
2024/01/11 11:56:36;;;;;;;27.25;16.92;;;23.70;48.00;;;;;;5112648;28;20040;-73
2024/01/11 11:59:03;;;;;;;32.75;18.80;;;23.60;48.30;;;;;;5093929;28;20115;-74
2024/01/11 12:01:32;;;;;;;33.30;20.30;;;23.70;48.40;;;;;;5092056;28;20031;-72
2024/01/11 12:03:58;;;;;;;26.38;18.25;;;23.60;48.60;;;;;;5091937;28;20043;-70
2024/01/11 12:06:24;;;;;;;27.20;16.83;;;23.50;50.30;;;;;;5091830;28;20035;-72
2024/01/11 12:08:53;;;;;;;26.13;18.00;;;23.40;49.70;;;;;;5091882;28;20107;-73
2024/01/11 12:11:21;;;;;;;24.67;16.83;;;23.30;49.80;;;;;;5091656;28;20044;-72
2024/01/11 12:13:48;;;;;;;26.70;18.35;;;23.30;50.80;;;;;;5106111;28;20120;-73
2024/01/11 12:16:15;;;;;;;24.40;17.65;;;23.30;49.80;;;;;;5111621;28;20098;-76
2024/01/11 12:18:41;;;;;;;32.40;18.55;;;23.40;49.70;;;;;;5111828;28;20048;-78
2024/01/11 12:21:08;;;;;;;29.80;16.77;;;23.40;49.70;;;;;;5111936;28;20031;-79
2024/01/11 12:23:36;;;;;;;11.32;7.97;;;23.40;50.20;;;;;;5112190;28;20035;-77
2024/01/11 12:26:07;;;;;;;10.80;8.18;;;23.70;47.50;;;;;;5111715;28;20104;-77